sensor_id;sensor_type;location;lat;lon;timestamp;temperature;humidity
44117;DHT22;29781;49.480;8.512;2023-06-10T00:01:43;22.50;98.80
44117;DHT22;29781;49.480;8.512;2023-06-10T00:04:13;22.80;97.40
44117;DHT22;29781;49.480;8.512;2023-06-10T00:06:38;22.90;97.10
44117;DHT22;29781;49.480;8.512;2023-06-10T00:09:05;23.00;96.80
44117;DHT22;29781;49.480;8.512;2023-06-10T00:11:33;22.90;96.60
44117;DHT22;29781;49.480;8.512;2023-06-10T00:13:59;22.90;96.40
44117;DHT22;29781;49.480;8.512;2023-06-10T00:16:25;22.90;95.80
44117;DHT22;29781;49.480;8.512;2023-06-10T00:18:51;22.90;95.90
44117;DHT22;29781;49.480;8.512;2023-06-10T00:21:17;22.80;95.50
44117;DHT22;29781;49.480;8.512;2023-06-10T00:23:42;22.80;95.30
44117;DHT22;29781;49.480;8.512;2023-06-10T00:26:08;22.90;95.10
44117;DHT22;29781;49.480;8.512;2023-06-10T00:28:34;23.00;95.50
44117;DHT22;29781;49.480;8.512;2023-06-10T00:31:00;23.10;95.60
44117;DHT22;29781;49.480;8.512;2023-06-10T00:33:25;23.10;95.70
44117;DHT22;29781;49.480;8.512;2023-06-10T00:35:51;23.20;95.50
44117;DHT22;29781;49.480;8.512;2023-06-10T00:38:17;23.30;95.90
44117;DHT22;29781;49.480;8.512;2023-06-10T00:40:42;23.20;96.50
44117;DHT22;29781;49.480;8.512;2023-06-10T00:43:08;23.10;96.70
44117;DHT22;29781;49.480;8.512;2023-06-10T00:45:34;23.10;96.90
44117;DHT22;29781;49.480;8.512;2023-06-10T00:48:00;22.90;97.40
44117;DHT22;29781;49.480;8.512;2023-06-10T00:50:27;22.90;97.60
44117;DHT22;29781;49.480;8.512;2023-06-10T00:52:54;22.90;97.70
44117;DHT22;29781;49.480;8.512;2023-06-10T00:55:20;22.90;97.90
44117;DHT22;29781;49.480;8.512;2023-06-10T00:57:46;22.70;99.00
44117;DHT22;29781;49.480;8.512;2023-06-10T01:00:14;22.60;99.20
44117;DHT22;29781;49.480;8.512;2023-06-10T01:02:40;22.60;98.60
44117;DHT22;29781;49.480;8.512;2023-06-10T01:05:10;22.40;98.60
44117;DHT22;29781;49.480;8.512;2023-06-10T01:08:00;22.30;98.30
44117;DHT22;29781;49.480;8.512;2023-06-10T01:10:53;22.00;98.40
44117;DHT22;29781;49.480;8.512;2023-06-10T01:13:22;21.60;98.90
44117;DHT22;29781;49.480;8.512;2023-06-10T01:15:50;21.50;99.30
44117;DHT22;29781;49.480;8.512;2023-06-10T01:18:15;21.40;99.40
44117;DHT22;29781;49.480;8.512;2023-06-10T01:20:42;21.40;99.60
44117;DHT22;29781;49.480;8.512;2023-06-10T01:23:10;21.40;99.50
44117;DHT22;29781;49.480;8.512;2023-06-10T01:25:38;21.40;99.60
44117;DHT22;29781;49.480;8.512;2023-06-10T01:28:25;21.30;99.80
44117;DHT22;29781;49.480;8.512;2023-06-10T01:31:18;21.00;99.90
44117;DHT22;29781;49.480;8.512;2023-06-10T01:33:49;20.70;99.90
44117;DHT22;29781;49.480;8.512;2023-06-10T01:36:17;20.50;99.90
44117;DHT22;29781;49.480;8.512;2023-06-10T01:38:45;20.60;99.90
44117;DHT22;29781;49.480;8.512;2023-06-10T01:41:13;20.50;99.90
44117;DHT22;29781;49.480;8.512;2023-06-10T01:43:39;20.50;99.90
44117;DHT22;29781;49.480;8.512;2023-06-10T01:46:05;20.40;99.90
44117;DHT22;29781;49.480;8.512;2023-06-10T01:48:31;20.40;99.90
44117;DHT22;29781;49.480;8.512;2023-06-10T01:50:56;20.20;99.90
44117;DHT22;29781;49.480;8.512;2023-06-10T01:53:22;20.20;99.90
44117;DHT22;29781;49.480;8.512;2023-06-10T01:55:48;20.20;99.90
44117;DHT22;29781;49.480;8.512;2023-06-10T01:58:14;20.30;99.90
44117;DHT22;29781;49.480;8.512;2023-06-10T02:00:39;20.20;99.90
44117;DHT22;29781;49.480;8.512;2023-06-10T02:03:05;20.20;99.90
44117;DHT22;29781;49.480;8.512;2023-06-10T02:05:30;20.10;99.90
44117;DHT22;29781;49.480;8.512;2023-06-10T02:07:56;20.10;99.90
44117;DHT22;29781;49.480;8.512;2023-06-10T02:10:21;20.20;99.90
44117;DHT22;29781;49.480;8.512;2023-06-10T02:12:47;20.30;99.90
44117;DHT22;29781;49.480;8.512;2023-06-10T02:15:12;20.30;99.90
44117;DHT22;29781;49.480;8.512;2023-06-10T02:17:38;20.50;99.90
44117;DHT22;29781;49.480;8.512;2023-06-10T02:20:05;20.50;99.90
44117;DHT22;29781;49.480;8.512;2023-06-10T02:22:32;20.50;99.90
44117;DHT22;29781;49.480;8.512;2023-06-10T02:24:58;20.80;99.90
44117;DHT22;29781;49.480;8.512;2023-06-10T02:27:24;20.90;99.90
44117;DHT22;29781;49.480;8.512;2023-06-10T02:29:50;20.80;99.90
44117;DHT22;29781;49.480;8.512;2023-06-10T02:32:15;20.70;99.90
44117;DHT22;29781;49.480;8.512;2023-06-10T02:34:41;20.80;99.90
44117;DHT22;29781;49.480;8.512;2023-06-10T02:37:09;20.90;99.90
44117;DHT22;29781;49.480;8.512;2023-06-10T02:39:35;21.00;99.90
44117;DHT22;29781;49.480;8.512;2023-06-10T02:42:00;20.90;99.90
44117;DHT22;29781;49.480;8.512;2023-06-10T02:44:26;21.00;99.90
44117;DHT22;29781;49.480;8.512;2023-06-10T02:46:51;21.00;99.90
44117;DHT22;29781;49.480;8.512;2023-06-10T02:49:17;20.90;99.90
44117;DHT22;29781;49.480;8.512;2023-06-10T02:51:42;20.80;99.90
44117;DHT22;29781;49.480;8.512;2023-06-10T02:54:08;20.60;99.90
44117;DHT22;29781;49.480;8.512;2023-06-10T02:56:33;20.40;99.90
44117;DHT22;29781;49.480;8.512;2023-06-10T02:58:59;20.20;99.90
44117;DHT22;29781;49.480;8.512;2023-06-10T03:01:25;20.20;99.90
44117;DHT22;29781;49.480;8.512;2023-06-10T03:03:51;20.10;99.90
44117;DHT22;29781;49.480;8.512;2023-06-10T03:06:16;20.10;99.90
44117;DHT22;29781;49.480;8.512;2023-06-10T03:08:42;20.10;99.90
44117;DHT22;29781;49.480;8.512;2023-06-10T03:11:08;20.10;99.90
44117;DHT22;29781;49.480;8.512;2023-06-10T03:13:33;20.20;99.90
44117;DHT22;29781;49.480;8.512;2023-06-10T03:15:59;20.20;99.90
44117;DHT22;29781;49.480;8.512;2023-06-10T03:18:26;20.20;99.90
44117;DHT22;29781;49.480;8.512;2023-06-10T03:20:53;20.30;99.90
44117;DHT22;29781;49.480;8.512;2023-06-10T03:23:18;20.30;99.90
44117;DHT22;29781;49.480;8.512;2023-06-10T03:25:44;20.40;99.90
44117;DHT22;29781;49.480;8.512;2023-06-10T03:28:10;20.20;99.90
44117;DHT22;29781;49.480;8.512;2023-06-10T03:30:36;20.20;99.90
44117;DHT22;29781;49.480;8.512;2023-06-10T03:33:02;20.10;99.90
44117;DHT22;29781;49.480;8.512;2023-06-10T03:35:27;20.00;99.90
44117;DHT22;29781;49.480;8.512;2023-06-10T03:37:53;19.90;99.90
44117;DHT22;29781;49.480;8.512;2023-06-10T03:40:18;19.70;99.90
44117;DHT22;29781;49.480;8.512;2023-06-10T03:42:44;19.50;99.90
44117;DHT22;29781;49.480;8.512;2023-06-10T03:45:10;19.40;99.90
44117;DHT22;29781;49.480;8.512;2023-06-10T03:47:37;19.30;99.90
44117;DHT22;29781;49.480;8.512;2023-06-10T03:50:04;19.30;99.90
44117;DHT22;29781;49.480;8.512;2023-06-10T03:52:30;19.40;99.90
44117;DHT22;29781;49.480;8.512;2023-06-10T03:54:55;19.40;99.90
44117;DHT22;29781;49.480;8.512;2023-06-10T03:57:21;19.40;99.90
44117;DHT22;29781;49.480;8.512;2023-06-10T03:59:46;19.30;99.90
44117;DHT22;29781;49.480;8.512;2023-06-10T04:02:12;19.40;99.90
44117;DHT22;29781;49.480;8.512;2023-06-10T04:04:37;19.30;99.90
44117;DHT22;29781;49.480;8.512;2023-06-10T04:07:04;19.30;99.90
44117;DHT22;29781;49.480;8.512;2023-06-10T04:09:30;19.40;99.90
44117;DHT22;29781;49.480;8.512;2023-06-10T04:11:55;19.50;99.90
44117;DHT22;29781;49.480;8.512;2023-06-10T04:14:21;19.40;99.90
44117;DHT22;29781;49.480;8.512;2023-06-10T04:16:47;19.50;99.90
44117;DHT22;29781;49.480;8.512;2023-06-10T04:19:12;19.50;99.90
44117;DHT22;29781;49.480;8.512;2023-06-10T04:21:38;19.40;99.90
44117;DHT22;29781;49.480;8.512;2023-06-10T04:24:03;19.50;99.90
44117;DHT22;29781;49.480;8.512;2023-06-10T04:26:29;19.50;99.90
44117;DHT22;29781;49.480;8.512;2023-06-10T04:28:55;19.60;99.90
44117;DHT22;29781;49.480;8.512;2023-06-10T04:31:20;20.00;99.90
44117;DHT22;29781;49.480;8.512;2023-06-10T04:33:46;20.20;99.90
44117;DHT22;29781;49.480;8.512;2023-06-10T04:36:11;20.30;99.90
44117;DHT22;29781;49.480;8.512;2023-06-10T04:38:37;20.40;99.90
44117;DHT22;29781;49.480;8.512;2023-06-10T04:41:02;20.60;99.90
44117;DHT22;29781;49.480;8.512;2023-06-10T04:43:29;20.60;99.90
44117;DHT22;29781;49.480;8.512;2023-06-10T04:45:55;20.50;99.90
44117;DHT22;29781;49.480;8.512;2023-06-10T04:48:21;20.60;99.90
44117;DHT22;29781;49.480;8.512;2023-06-10T04:50:49;20.60;99.90
44117;DHT22;29781;49.480;8.512;2023-06-10T04:53:15;20.60;99.90
44117;DHT22;29781;49.480;8.512;2023-06-10T04:55:41;20.50;99.90
44117;DHT22;29781;49.480;8.512;2023-06-10T04:58:07;20.50;99.90
44117;DHT22;29781;49.480;8.512;2023-06-10T05:00:32;20.60;99.90
44117;DHT22;29781;49.480;8.512;2023-06-10T05:02:58;20.90;99.90
44117;DHT22;29781;49.480;8.512;2023-06-10T05:05:24;20.90;99.90
44117;DHT22;29781;49.480;8.512;2023-06-10T05:07:49;20.80;99.90
44117;DHT22;29781;49.480;8.512;2023-06-10T05:10:15;21.00;99.90
44117;DHT22;29781;49.480;8.512;2023-06-10T05:12:40;21.00;99.90
44117;DHT22;29781;49.480;8.512;2023-06-10T05:15:07;20.90;99.90
44117;DHT22;29781;49.480;8.512;2023-06-10T05:17:33;21.00;99.90
44117;DHT22;29781;49.480;8.512;2023-06-10T05:19:58;21.00;99.90
44117;DHT22;29781;49.480;8.512;2023-06-10T05:22:24;21.10;99.90
44117;DHT22;29781;49.480;8.512;2023-06-10T05:24:50;21.60;99.90
44117;DHT22;29781;49.480;8.512;2023-06-10T05:27:16;22.30;99.90
44117;DHT22;29781;49.480;8.512;2023-06-10T05:29:42;22.60;99.90
44117;DHT22;29781;49.480;8.512;2023-06-10T05:32:08;23.10;99.90
44117;DHT22;29781;49.480;8.512;2023-06-10T05:34:34;23.50;99.90
44117;DHT22;29781;49.480;8.512;2023-06-10T05:36:59;23.50;99.90
44117;DHT22;29781;49.480;8.512;2023-06-10T05:39:25;23.20;99.90
44117;DHT22;29781;49.480;8.512;2023-06-10T05:41:50;23.10;99.90
44117;DHT22;29781;49.480;8.512;2023-06-10T05:44:16;22.60;99.90
44117;DHT22;29781;49.480;8.512;2023-06-10T05:46:41;22.60;99.90
44117;DHT22;29781;49.480;8.512;2023-06-10T05:49:07;22.50;99.90
44117;DHT22;29781;49.480;8.512;2023-06-10T05:51:33;22.60;99.90
44117;DHT22;29781;49.480;8.512;2023-06-10T05:53:58;22.50;99.90
44117;DHT22;29781;49.480;8.512;2023-06-10T05:56:24;22.40;99.90
44117;DHT22;29781;49.480;8.512;2023-06-10T05:58:51;22.20;99.90
44117;DHT22;29781;49.480;8.512;2023-06-10T06:01:16;22.20;99.90
44117;DHT22;29781;49.480;8.512;2023-06-10T06:03:42;22.20;99.90
44117;DHT22;29781;49.480;8.512;2023-06-10T06:06:07;22.30;99.90
44117;DHT22;29781;49.480;8.512;2023-06-10T06:08:33;22.20;99.90
44117;DHT22;29781;49.480;8.512;2023-06-10T06:10:58;22.10;99.90
44117;DHT22;29781;49.480;8.512;2023-06-10T06:13:24;21.90;99.90
44117;DHT22;29781;49.480;8.512;2023-06-10T06:15:50;21.90;99.90
44117;DHT22;29781;49.480;8.512;2023-06-10T06:18:15;22.10;99.90
44117;DHT22;29781;49.480;8.512;2023-06-10T06:20:41;22.10;99.90
44117;DHT22;29781;49.480;8.512;2023-06-10T06:23:07;21.90;99.90
44117;DHT22;29781;49.480;8.512;2023-06-10T06:25:35;21.80;99.90
44117;DHT22;29781;49.480;8.512;2023-06-10T06:28:01;21.90;99.90
44117;DHT22;29781;49.480;8.512;2023-06-10T06:30:27;22.00;99.90
44117;DHT22;29781;49.480;8.512;2023-06-10T06:32:52;22.10;99.90
44117;DHT22;29781;49.480;8.512;2023-06-10T06:35:18;22.20;99.90
44117;DHT22;29781;49.480;8.512;2023-06-10T06:37:44;22.50;99.90
44117;DHT22;29781;49.480;8.512;2023-06-10T06:40:10;22.60;99.90
44117;DHT22;29781;49.480;8.512;2023-06-10T06:42:35;22.80;99.90
44117;DHT22;29781;49.480;8.512;2023-06-10T06:45:01;22.80;99.90
44117;DHT22;29781;49.480;8.512;2023-06-10T06:47:26;22.80;99.90
44117;DHT22;29781;49.480;8.512;2023-06-10T06:49:52;22.90;99.90
44117;DHT22;29781;49.480;8.512;2023-06-10T06:52:18;22.90;99.90
44117;DHT22;29781;49.480;8.512;2023-06-10T06:54:44;23.00;99.90
44117;DHT22;29781;49.480;8.512;2023-06-10T06:57:10;23.20;99.90
44117;DHT22;29781;49.480;8.512;2023-06-10T06:59:36;23.30;99.90
44117;DHT22;29781;49.480;8.512;2023-06-10T07:02:02;23.40;99.90
44117;DHT22;29781;49.480;8.512;2023-06-10T07:04:28;23.40;99.90
44117;DHT22;29781;49.480;8.512;2023-06-10T07:06:54;23.50;99.90
44117;DHT22;29781;49.480;8.512;2023-06-10T07:09:19;23.60;99.90
44117;DHT22;29781;49.480;8.512;2023-06-10T07:11:45;23.70;99.90
44117;DHT22;29781;49.480;8.512;2023-06-10T07:14:10;23.90;99.90
44117;DHT22;29781;49.480;8.512;2023-06-10T07:16:36;24.10;99.90
44117;DHT22;29781;49.480;8.512;2023-06-10T07:19:01;24.30;99.90
44117;DHT22;29781;49.480;8.512;2023-06-10T07:21:27;24.40;99.70
44117;DHT22;29781;49.480;8.512;2023-06-10T07:23:54;24.70;99.20
44117;DHT22;29781;49.480;8.512;2023-06-10T07:26:21;24.70;98.70
44117;DHT22;29781;49.480;8.512;2023-06-10T07:28:46;24.80;98.70
44117;DHT22;29781;49.480;8.512;2023-06-10T07:31:12;24.70;98.70
44117;DHT22;29781;49.480;8.512;2023-06-10T07:33:37;24.50;99.30
44117;DHT22;29781;49.480;8.512;2023-06-10T07:36:05;24.50;99.00
44117;DHT22;29781;49.480;8.512;2023-06-10T07:38:31;24.80;98.50
44117;DHT22;29781;49.480;8.512;2023-06-10T07:40:57;25.10;97.90
44117;DHT22;29781;49.480;8.512;2023-06-10T07:43:23;25.20;98.00
44117;DHT22;29781;49.480;8.512;2023-06-10T07:45:49;25.30;98.10
44117;DHT22;29781;49.480;8.512;2023-06-10T07:48:14;25.40;97.90
44117;DHT22;29781;49.480;8.512;2023-06-10T07:50:40;25.40;97.60
44117;DHT22;29781;49.480;8.512;2023-06-10T07:53:06;25.40;97.80
44117;DHT22;29781;49.480;8.512;2023-06-10T07:55:31;25.30;98.00
44117;DHT22;29781;49.480;8.512;2023-06-10T07:57:57;25.30;97.70
44117;DHT22;29781;49.480;8.512;2023-06-10T08:00:24;25.30;97.90
44117;DHT22;29781;49.480;8.512;2023-06-10T08:02:49;25.40;97.80
44117;DHT22;29781;49.480;8.512;2023-06-10T08:05:16;25.40;97.40
44117;DHT22;29781;49.480;8.512;2023-06-10T08:07:42;25.30;97.70
44117;DHT22;29781;49.480;8.512;2023-06-10T08:10:17;25.40;97.80
44117;DHT22;29781;49.480;8.512;2023-06-10T08:12:42;25.70;97.10
44117;DHT22;29781;49.480;8.512;2023-06-10T08:15:08;25.70;97.20
44117;DHT22;29781;49.480;8.512;2023-06-10T08:17:34;25.70;97.90
44117;DHT22;29781;49.480;8.512;2023-06-10T08:20:01;25.80;97.00
44117;DHT22;29781;49.480;8.512;2023-06-10T08:22:31;25.80;97.10
44117;DHT22;29781;49.480;8.512;2023-06-10T08:24:56;25.90;97.20
44117;DHT22;29781;49.480;8.512;2023-06-10T08:27:22;25.90;97.30
44117;DHT22;29781;49.480;8.512;2023-06-10T08:29:55;25.90;97.20
44117;DHT22;29781;49.480;8.512;2023-06-10T08:32:24;26.00;97.30
44117;DHT22;29781;49.480;8.512;2023-06-10T08:34:53;25.90;97.20
44117;DHT22;29781;49.480;8.512;2023-06-10T08:37:18;26.00;97.50
44117;DHT22;29781;49.480;8.512;2023-06-10T08:39:44;25.80;97.00
44117;DHT22;29781;49.480;8.512;2023-06-10T08:42:24;25.70;97.60
44117;DHT22;29781;49.480;8.512;2023-06-10T08:44:54;25.60;98.20
44117;DHT22;29781;49.480;8.512;2023-06-10T08:47:26;25.60;97.40
44117;DHT22;29781;49.480;8.512;2023-06-10T08:49:55;25.80;97.10
44117;DHT22;29781;49.480;8.512;2023-06-10T08:52:23;25.90;97.10
44117;DHT22;29781;49.480;8.512;2023-06-10T08:55:30;26.20;97.00
44117;DHT22;29781;49.480;8.512;2023-06-10T08:58:00;26.80;96.30
44117;DHT22;29781;49.480;8.512;2023-06-10T09:00:29;26.90;95.50
44117;DHT22;29781;49.480;8.512;2023-06-10T09:02:55;27.10;95.30
44117;DHT22;29781;49.480;8.512;2023-06-10T09:07:57;26.90;95.10
44117;DHT22;29781;49.480;8.512;2023-06-10T09:10:23;27.60;95.00
44117;DHT22;29781;49.480;8.512;2023-06-10T09:12:51;28.20;94.40
44117;DHT22;29781;49.480;8.512;2023-06-10T09:15:17;27.30;94.80
44117;DHT22;29781;49.480;8.512;2023-06-10T09:17:43;27.20;95.30
44117;DHT22;29781;49.480;8.512;2023-06-10T09:20:09;27.60;94.40
44117;DHT22;29781;49.480;8.512;2023-06-10T09:22:34;27.20;94.80
44117;DHT22;29781;49.480;8.512;2023-06-10T09:25:07;26.90;94.90
44117;DHT22;29781;49.480;8.512;2023-06-10T09:27:52;27.00;95.00
44117;DHT22;29781;49.480;8.512;2023-06-10T09:30:32;27.00;94.30
44117;DHT22;29781;49.480;8.512;2023-06-10T09:33:01;26.80;95.20
44117;DHT22;29781;49.480;8.512;2023-06-10T09:35:29;26.70;94.70
44117;DHT22;29781;49.480;8.512;2023-06-10T09:37:56;26.70;95.00
44117;DHT22;29781;49.480;8.512;2023-06-10T09:40:22;27.00;95.60
44117;DHT22;29781;49.480;8.512;2023-06-10T09:42:54;27.30;95.00
44117;DHT22;29781;49.480;8.512;2023-06-10T09:45:20;27.30;94.20
44117;DHT22;29781;49.480;8.512;2023-06-10T09:47:47;27.70;95.80
44117;DHT22;29781;49.480;8.512;2023-06-10T09:50:13;28.00;95.80
44117;DHT22;29781;49.480;8.512;2023-06-10T09:52:38;28.10;95.40
44117;DHT22;29781;49.480;8.512;2023-06-10T09:55:07;27.90;95.70
44117;DHT22;29781;49.480;8.512;2023-06-10T09:57:33;28.00;95.80
44117;DHT22;29781;49.480;8.512;2023-06-10T09:59:59;28.00;95.50
44117;DHT22;29781;49.480;8.512;2023-06-10T10:02:24;27.60;95.60
44117;DHT22;29781;49.480;8.512;2023-06-10T10:04:50;27.60;95.90
44117;DHT22;29781;49.480;8.512;2023-06-10T10:07:16;27.40;94.60
44117;DHT22;29781;49.480;8.512;2023-06-10T10:09:42;27.40;94.20
44117;DHT22;29781;49.480;8.512;2023-06-10T10:12:11;27.40;94.90
44117;DHT22;29781;49.480;8.512;2023-06-10T10:14:38;27.40;95.00
44117;DHT22;29781;49.480;8.512;2023-06-10T10:17:07;27.30;93.70
44117;DHT22;29781;49.480;8.512;2023-06-10T10:19:39;27.40;93.50
44117;DHT22;29781;49.480;8.512;2023-06-10T10:22:07;27.20;92.90
44117;DHT22;29781;49.480;8.512;2023-06-10T10:24:40;27.20;92.30
44117;DHT22;29781;49.480;8.512;2023-06-10T10:27:17;27.60;91.80
44117;DHT22;29781;49.480;8.512;2023-06-10T10:29:47;28.10;92.00
44117;DHT22;29781;49.480;8.512;2023-06-10T10:32:13;28.20;91.30
44117;DHT22;29781;49.480;8.512;2023-06-10T10:34:49;28.20;90.90
44117;DHT22;29781;49.480;8.512;2023-06-10T10:37:16;27.90;91.00
44117;DHT22;29781;49.480;8.512;2023-06-10T10:39:42;27.60;90.60
44117;DHT22;29781;49.480;8.512;2023-06-10T10:42:09;27.50;90.90
44117;DHT22;29781;49.480;8.512;2023-06-10T10:44:37;27.50;91.10
44117;DHT22;29781;49.480;8.512;2023-06-10T10:47:03;27.50;91.20
44117;DHT22;29781;49.480;8.512;2023-06-10T10:49:32;27.40;90.80
44117;DHT22;29781;49.480;8.512;2023-06-10T10:52:01;27.50;90.70
44117;DHT22;29781;49.480;8.512;2023-06-10T10:54:36;27.70;90.50
44117;DHT22;29781;49.480;8.512;2023-06-10T10:57:20;27.70;90.40
44117;DHT22;29781;49.480;8.512;2023-06-10T11:02:19;28.00;89.90
44117;DHT22;29781;49.480;8.512;2023-06-10T11:04:57;27.70;89.90
44117;DHT22;29781;49.480;8.512;2023-06-10T11:07:25;27.70;90.40
44117;DHT22;29781;49.480;8.512;2023-06-10T11:09:58;27.80;89.40
44117;DHT22;29781;49.480;8.512;2023-06-10T11:15:18;27.90;90.60
44117;DHT22;29781;49.480;8.512;2023-06-10T11:18:06;28.10;90.30
44117;DHT22;29781;49.480;8.512;2023-06-10T11:23:09;27.90;90.00
44117;DHT22;29781;49.480;8.512;2023-06-10T11:25:39;28.00;89.80
44117;DHT22;29781;49.480;8.512;2023-06-10T11:31:02;28.30;89.90
44117;DHT22;29781;49.480;8.512;2023-06-10T11:33:28;28.00;90.20
44117;DHT22;29781;49.480;8.512;2023-06-10T11:35:54;28.00;90.60
44117;DHT22;29781;49.480;8.512;2023-06-10T11:38:20;28.10;90.20
44117;DHT22;29781;49.480;8.512;2023-06-10T11:40:49;28.00;89.10
44117;DHT22;29781;49.480;8.512;2023-06-10T11:43:17;27.90;89.80
44117;DHT22;29781;49.480;8.512;2023-06-10T11:45:43;28.00;90.00
44117;DHT22;29781;49.480;8.512;2023-06-10T11:48:09;28.10;89.80
44117;DHT22;29781;49.480;8.512;2023-06-10T11:50:35;28.40;90.70
44117;DHT22;29781;49.480;8.512;2023-06-10T11:53:00;28.40;89.90
44117;DHT22;29781;49.480;8.512;2023-06-10T11:55:46;28.30;89.50
44117;DHT22;29781;49.480;8.512;2023-06-10T11:58:22;28.30;89.50
44117;DHT22;29781;49.480;8.512;2023-06-10T12:00:55;28.30;90.50
44117;DHT22;29781;49.480;8.512;2023-06-10T12:03:26;28.40;90.00
44117;DHT22;29781;49.480;8.512;2023-06-10T12:08:23;28.70;89.30
44117;DHT22;29781;49.480;8.512;2023-06-10T12:10:49;28.60;88.20
44117;DHT22;29781;49.480;8.512;2023-06-10T12:13:15;28.40;89.20
44117;DHT22;29781;49.480;8.512;2023-06-10T12:15:43;28.20;89.20
44117;DHT22;29781;49.480;8.512;2023-06-10T12:18:16;28.50;89.80
44117;DHT22;29781;49.480;8.512;2023-06-10T12:20:42;28.60;88.40
44117;DHT22;29781;49.480;8.512;2023-06-10T12:23:11;28.60;89.50
44117;DHT22;29781;49.480;8.512;2023-06-10T12:25:38;28.30;88.30
44117;DHT22;29781;49.480;8.512;2023-06-10T12:28:04;28.10;89.20
44117;DHT22;29781;49.480;8.512;2023-06-10T12:30:30;28.20;88.60
44117;DHT22;29781;49.480;8.512;2023-06-10T12:32:56;28.10;88.80
44117;DHT22;29781;49.480;8.512;2023-06-10T12:35:24;28.20;88.20
44117;DHT22;29781;49.480;8.512;2023-06-10T12:38:04;28.20;88.60
44117;DHT22;29781;49.480;8.512;2023-06-10T12:40:41;28.20;89.60
44117;DHT22;29781;49.480;8.512;2023-06-10T12:43:07;28.40;89.00
44117;DHT22;29781;49.480;8.512;2023-06-10T12:45:34;28.60;88.00
44117;DHT22;29781;49.480;8.512;2023-06-10T12:50:43;28.60;89.00
44117;DHT22;29781;49.480;8.512;2023-06-10T12:53:12;28.40;88.10
44117;DHT22;29781;49.480;8.512;2023-06-10T12:55:38;28.40;88.50
44117;DHT22;29781;49.480;8.512;2023-06-10T12:58:04;28.40;89.10
44117;DHT22;29781;49.480;8.512;2023-06-10T13:00:30;28.50;88.60
44117;DHT22;29781;49.480;8.512;2023-06-10T13:03:12;28.20;89.60
44117;DHT22;29781;49.480;8.512;2023-06-10T13:05:38;28.10;89.60
44117;DHT22;29781;49.480;8.512;2023-06-10T13:08:05;28.10;89.70
44117;DHT22;29781;49.480;8.512;2023-06-10T13:10:31;28.20;88.90
44117;DHT22;29781;49.480;8.512;2023-06-10T13:13:00;28.20;89.30
44117;DHT22;29781;49.480;8.512;2023-06-10T13:15:25;28.40;88.20
44117;DHT22;29781;49.480;8.512;2023-06-10T13:17:52;28.70;87.80
44117;DHT22;29781;49.480;8.512;2023-06-10T13:20:18;28.80;87.00
44117;DHT22;29781;49.480;8.512;2023-06-10T13:22:44;28.60;86.80
44117;DHT22;29781;49.480;8.512;2023-06-10T13:25:10;28.40;87.90
44117;DHT22;29781;49.480;8.512;2023-06-10T13:27:36;28.40;88.30
44117;DHT22;29781;49.480;8.512;2023-06-10T13:30:08;28.20;88.40
44117;DHT22;29781;49.480;8.512;2023-06-10T13:32:34;28.10;88.30
44117;DHT22;29781;49.480;8.512;2023-06-10T13:35:00;28.10;89.60
44117;DHT22;29781;49.480;8.512;2023-06-10T13:37:26;28.10;90.00
44117;DHT22;29781;49.480;8.512;2023-06-10T13:39:55;28.10;89.50
44117;DHT22;29781;49.480;8.512;2023-06-10T13:42:24;28.30;89.60
44117;DHT22;29781;49.480;8.512;2023-06-10T13:44:51;28.50;87.90
44117;DHT22;29781;49.480;8.512;2023-06-10T13:47:17;28.70;86.60
44117;DHT22;29781;49.480;8.512;2023-06-10T13:49:46;28.80;86.70
44117;DHT22;29781;49.480;8.512;2023-06-10T13:52:11;28.80;86.90
44117;DHT22;29781;49.480;8.512;2023-06-10T13:54:37;28.90;87.00
44117;DHT22;29781;49.480;8.512;2023-06-10T13:57:05;29.00;87.00
44117;DHT22;29781;49.480;8.512;2023-06-10T13:59:31;29.00;86.70
44117;DHT22;29781;49.480;8.512;2023-06-10T14:01:56;29.20;86.90
44117;DHT22;29781;49.480;8.512;2023-06-10T14:04:24;29.20;86.20
44117;DHT22;29781;49.480;8.512;2023-06-10T14:06:50;29.20;86.20
44117;DHT22;29781;49.480;8.512;2023-06-10T14:09:16;29.20;85.90
44117;DHT22;29781;49.480;8.512;2023-06-10T14:11:42;28.90;85.10
44117;DHT22;29781;49.480;8.512;2023-06-10T14:14:08;28.80;84.60
44117;DHT22;29781;49.480;8.512;2023-06-10T14:16:33;28.60;85.40
44117;DHT22;29781;49.480;8.512;2023-06-10T14:19:06;28.70;86.00
44117;DHT22;29781;49.480;8.512;2023-06-10T14:21:32;28.60;85.80
44117;DHT22;29781;49.480;8.512;2023-06-10T14:23:57;28.50;86.10
44117;DHT22;29781;49.480;8.512;2023-06-10T14:26:23;28.50;85.90
44117;DHT22;29781;49.480;8.512;2023-06-10T14:28:49;28.60;86.90
44117;DHT22;29781;49.480;8.512;2023-06-10T14:31:15;28.60;87.50
44117;DHT22;29781;49.480;8.512;2023-06-10T14:33:41;28.70;86.40
44117;DHT22;29781;49.480;8.512;2023-06-10T14:36:09;28.90;86.60
44117;DHT22;29781;49.480;8.512;2023-06-10T14:38:35;29.00;85.80
44117;DHT22;29781;49.480;8.512;2023-06-10T14:41:00;29.20;85.20
44117;DHT22;29781;49.480;8.512;2023-06-10T14:43:26;29.20;85.50
44117;DHT22;29781;49.480;8.512;2023-06-10T14:45:51;29.20;84.90
44117;DHT22;29781;49.480;8.512;2023-06-10T14:48:20;29.30;84.20
44117;DHT22;29781;49.480;8.512;2023-06-10T14:50:46;29.20;80.40
44117;DHT22;29781;49.480;8.512;2023-06-10T14:53:18;29.00;80.80
44117;DHT22;29781;49.480;8.512;2023-06-10T14:55:44;28.90;82.10
44117;DHT22;29781;49.480;8.512;2023-06-10T14:58:10;28.90;83.00
44117;DHT22;29781;49.480;8.512;2023-06-10T15:00:36;28.80;83.10
44117;DHT22;29781;49.480;8.512;2023-06-10T15:03:02;28.90;83.60
44117;DHT22;29781;49.480;8.512;2023-06-10T15:05:28;29.10;83.50
44117;DHT22;29781;49.480;8.512;2023-06-10T15:07:54;29.20;83.30
44117;DHT22;29781;49.480;8.512;2023-06-10T15:10:19;29.20;83.60
44117;DHT22;29781;49.480;8.512;2023-06-10T15:12:47;29.30;84.90
44117;DHT22;29781;49.480;8.512;2023-06-10T15:15:13;29.40;83.80
44117;DHT22;29781;49.480;8.512;2023-06-10T15:17:38;29.50;84.10
44117;DHT22;29781;49.480;8.512;2023-06-10T15:20:05;29.50;81.80
44117;DHT22;29781;49.480;8.512;2023-06-10T15:22:31;29.50;81.90
44117;DHT22;29781;49.480;8.512;2023-06-10T15:24:56;29.40;82.10
44117;DHT22;29781;49.480;8.512;2023-06-10T15:27:23;29.40;82.50
44117;DHT22;29781;49.480;8.512;2023-06-10T15:29:48;29.40;82.10
44117;DHT22;29781;49.480;8.512;2023-06-10T15:32:14;29.50;82.10
44117;DHT22;29781;49.480;8.512;2023-06-10T15:34:39;29.50;82.10
44117;DHT22;29781;49.480;8.512;2023-06-10T15:37:05;29.60;82.20
44117;DHT22;29781;49.480;8.512;2023-06-10T15:39:31;29.60;81.30
44117;DHT22;29781;49.480;8.512;2023-06-10T15:41:56;29.50;82.00
44117;DHT22;29781;49.480;8.512;2023-06-10T15:44:23;29.60;82.00
44117;DHT22;29781;49.480;8.512;2023-06-10T15:46:48;29.40;83.60
44117;DHT22;29781;49.480;8.512;2023-06-10T15:49:15;29.30;81.60